createdAt,value
2022-08-03T00:00:32.577Z,1021.69
2022-08-03T00:03:01.438Z,1021.61
2022-08-03T00:05:28.759Z,1021.63
2022-08-03T00:07:55.623Z,1021.71
2022-08-03T00:10:25.771Z,1021.77
2022-08-03T00:12:54.075Z,1021.65
2022-08-03T00:15:21.088Z,1021.74
2022-08-03T00:17:52.447Z,1021.71
2022-08-03T00:20:20.603Z,1021.80
2022-08-03T00:22:48.167Z,1021.77
2022-08-03T00:25:15.639Z,1021.66
2022-08-03T00:27:43.967Z,1021.65
2022-08-03T00:30:12.071Z,1021.71
2022-08-03T00:32:45.144Z,1021.71
2022-08-03T00:35:25.977Z,1021.71
2022-08-03T00:38:00.375Z,1021.67
2022-08-03T00:40:27.811Z,1021.69
2022-08-03T00:43:00.765Z,1021.60
2022-08-03T00:45:32.454Z,1021.69
2022-08-03T00:48:00.140Z,1021.75
2022-08-03T00:50:31.099Z,1021.66
2022-08-03T00:52:59.574Z,1021.65
2022-08-03T00:55:26.839Z,1021.67
2022-08-03T00:57:54.435Z,1021.60
2022-08-03T01:00:24.379Z,1021.59
2022-08-03T01:02:52.771Z,1021.69
2022-08-03T01:05:22.842Z,1021.75
2022-08-03T01:08:02.064Z,1021.80
2022-08-03T01:10:37.156Z,1021.86
2022-08-03T01:14:01.661Z,1021.78
2022-08-03T01:16:12.542Z,1021.74
2022-08-03T01:18:52.648Z,1021.72
2022-08-03T01:21:26.930Z,1021.78
2022-08-03T01:24:04.446Z,1021.71
2022-08-03T01:26:52.875Z,1021.67
2022-08-03T01:29:56.482Z,1021.57
2022-08-03T01:32:59.547Z,1021.64
2022-08-03T01:35:26.913Z,1021.68
2022-08-03T01:38:02.543Z,1021.63
2022-08-03T01:40:31.409Z,1021.73
2022-08-03T01:43:03.939Z,1021.63
2022-08-03T01:45:34.475Z,1021.68
2022-08-03T01:48:06.402Z,1021.74
2022-08-03T01:50:36.970Z,1021.73
2022-08-03T01:53:05.296Z,1021.69
2022-08-03T01:55:36.872Z,1021.59
2022-08-03T01:58:06.942Z,1021.61
2022-08-03T02:00:44.680Z,1021.66
2022-08-03T02:03:16.027Z,1021.64
2022-08-03T02:05:47.748Z,1021.66
2022-08-03T02:08:17.917Z,1021.64
2022-08-03T02:10:46.691Z,1021.58
2022-08-03T02:13:17.352Z,1021.70
2022-08-03T02:15:47.024Z,1021.60
2022-08-03T02:18:22.044Z,1021.60
2022-08-03T02:20:52.821Z,1021.64
2022-08-03T02:23:21.127Z,1021.60
2022-08-03T02:25:57.961Z,1021.61
2022-08-03T02:28:32.392Z,1021.56
2022-08-03T02:31:06.891Z,1021.63
2022-08-03T02:33:41.273Z,1021.63
2022-08-03T02:36:14.592Z,1021.65
2022-08-03T02:38:44.216Z,1021.59
2022-08-03T02:41:22.416Z,1021.61
2022-08-03T02:44:05.958Z,1021.64
2022-08-03T02:46:42.016Z,1021.59
2022-08-03T02:49:49.561Z,1021.62
2022-08-03T02:52:02.812Z,1021.65
2022-08-03T02:54:32.683Z,1021.59
2022-08-03T02:57:02.307Z,1021.62
2022-08-03T02:59:32.062Z,1021.58
2022-08-03T03:02:03.491Z,1021.50
2022-08-03T03:04:33.265Z,1021.56
2022-08-03T03:07:01.907Z,1021.44
2022-08-03T03:09:41.551Z,1021.48
2022-08-03T03:12:13.414Z,1021.59
2022-08-03T03:14:48.863Z,1021.64
2022-08-03T03:17:20.339Z,1021.57
2022-08-03T03:19:49.675Z,1021.51
2022-08-03T03:22:20.226Z,1021.61
2022-08-03T03:24:50.536Z,1021.72
2022-08-03T03:27:18.529Z,1021.75
2022-08-03T03:29:47.484Z,1021.73
2022-08-03T03:32:15.164Z,1021.70
2022-08-03T03:34:45.038Z,1021.78
2022-08-03T03:37:19.616Z,1021.81
2022-08-03T03:39:57.893Z,1021.77
2022-08-03T03:42:26.259Z,1021.77
2022-08-03T03:44:54.918Z,1021.79
2022-08-03T03:47:32.743Z,1021.73
2022-08-03T03:50:04.100Z,1021.79
2022-08-03T03:52:32.208Z,1021.74
2022-08-03T03:55:01.214Z,1021.61
2022-08-03T03:57:30.342Z,1021.66
2022-08-03T03:59:57.982Z,1021.76
2022-08-03T04:02:26.742Z,1021.81
2022-08-03T04:04:55.686Z,1021.87
2022-08-03T04:07:26.047Z,1021.85
2022-08-03T04:09:56.034Z,1021.86
2022-08-03T04:12:28.273Z,1021.83
2022-08-03T04:14:57.979Z,1021.88
2022-08-03T04:17:32.789Z,1021.94
2022-08-03T04:20:01.417Z,1021.89
2022-08-03T04:22:34.622Z,1021.93
2022-08-03T04:25:15.067Z,1021.99
2022-08-03T04:28:07.982Z,1021.97
2022-08-03T04:30:38.854Z,1021.94
2022-08-03T04:33:07.611Z,1021.97
2022-08-03T04:36:01.129Z,1022.01
2022-08-03T04:38:27.531Z,1022.04
2022-08-03T04:40:56.832Z,1022.09
2022-08-03T04:43:25.270Z,1022.11
2022-08-03T04:45:55.330Z,1022.10
2022-08-03T04:48:27.697Z,1022.01
2022-08-03T04:50:54.977Z,1022.00
2022-08-03T04:53:22.028Z,1022.08
2022-08-03T04:55:52.559Z,1022.07
2022-08-03T04:58:22.654Z,1022.04
2022-08-03T05:00:49.678Z,1022.01
2022-08-03T05:03:24.461Z,1022.05
2022-08-03T05:06:09.498Z,1022.08
2022-08-03T05:08:46.421Z,1022.16
2022-08-03T05:11:23.250Z,1022.14
2022-08-03T05:13:51.114Z,1022.17
2022-08-03T05:16:19.865Z,1022.13
2022-08-03T05:18:47.864Z,1022.08
2022-08-03T05:21:16.662Z,1022.02
2022-08-03T05:23:43.867Z,1022.11
2022-08-03T05:26:11.228Z,1022.16
2022-08-03T05:28:50.970Z,1022.09
2022-08-03T05:31:23.140Z,1022.08
2022-08-03T05:33:50.393Z,1021.72
2022-08-03T05:36:18.443Z,1021.02
2022-08-03T05:38:45.668Z,1020.46
2022-08-03T05:41:22.096Z,1019.89
2022-08-03T05:43:52.782Z,1019.60
2022-08-03T05:46:20.467Z,1019.26
2022-08-03T05:48:48.862Z,1019.04
2022-08-03T05:51:21.464Z,1018.76
2022-08-03T05:53:49.579Z,1018.61
2022-08-03T05:56:17.573Z,1018.53
2022-08-03T05:58:46.177Z,1018.51
2022-08-03T06:01:15.146Z,1018.54
2022-08-03T06:03:42.600Z,1018.55
2022-08-03T06:06:10.892Z,1018.59
2022-08-03T06:08:42.065Z,1018.52
2022-08-03T06:11:09.891Z,1018.55
2022-08-03T06:13:39.395Z,1018.62
2022-08-03T06:16:06.411Z,1018.46
2022-08-03T06:18:37.193Z,1018.47
2022-08-03T06:21:15.243Z,1018.39
2022-08-03T06:23:54.601Z,1018.50
2022-08-03T06:26:27.886Z,1018.51
2022-08-03T06:28:57.467Z,1018.39
2022-08-03T06:31:33.383Z,1018.25
2022-08-03T06:34:34.447Z,1018.03
2022-08-03T06:36:58.630Z,1018.00
2022-08-03T06:39:30.370Z,1018.02
2022-08-03T06:41:58.311Z,1017.95
2022-08-03T06:44:26.580Z,1018.00
2022-08-03T06:46:55.177Z,1017.87
2022-08-03T06:49:27.354Z,1017.79
2022-08-03T06:52:04.060Z,1017.73
2022-08-03T06:54:50.657Z,1017.72
2022-08-03T06:57:18.405Z,1017.67
2022-08-03T07:00:09.049Z,1017.65
2022-08-03T07:02:37.493Z,1017.60
2022-08-03T07:05:08.202Z,1017.64
2022-08-03T07:07:37.050Z,1017.53
2022-08-03T07:10:08.018Z,1017.51
2022-08-03T07:12:35.793Z,1017.67
2022-08-03T07:15:05.027Z,1017.56
2022-08-03T07:17:33.676Z,1017.63
2022-08-03T07:20:01.909Z,1017.49
2022-08-03T07:22:30.519Z,1017.74
2022-08-03T07:25:03.993Z,1017.52
2022-08-03T07:27:33.237Z,1017.46
2022-08-03T07:30:02.651Z,1017.30
2022-08-03T07:32:30.797Z,1017.25
2022-08-03T07:35:01.108Z,1017.18
2022-08-03T07:37:36.532Z,1017.17
2022-08-03T07:40:05.888Z,1017.11
2022-08-03T07:42:33.807Z,1017.08
2022-08-03T07:45:00.614Z,1017.06
2022-08-03T07:47:35.620Z,1017.06
2022-08-03T07:50:04.546Z,1016.95
2022-08-03T07:52:36.518Z,1016.90
2022-08-03T07:55:04.758Z,1016.85
2022-08-03T07:57:37.268Z,1016.76
2022-08-03T08:00:07.452Z,1016.75
2022-08-03T08:02:35.399Z,1016.58
2022-08-03T08:05:05.683Z,1016.60
2022-08-03T08:07:35.113Z,1016.56
2022-08-03T08:10:02.055Z,1016.51
2022-08-03T08:12:28.956Z,1016.57
2022-08-03T08:14:55.912Z,1016.58
2022-08-03T08:17:23.778Z,1016.52
2022-08-03T08:19:58.107Z,1016.43
2022-08-03T08:22:30.561Z,1016.40
2022-08-03T08:25:01.575Z,1016.39
2022-08-03T08:27:28.955Z,1016.37
2022-08-03T08:30:19.427Z,1016.34
2022-08-03T08:32:48.523Z,1016.40
2022-08-03T08:35:16.350Z,1016.30
2022-08-03T08:37:43.385Z,1016.32
2022-08-03T08:40:34.457Z,1016.24
2022-08-03T08:43:10.225Z,1016.15
2022-08-03T08:45:38.160Z,1016.22
2022-08-03T08:48:08.539Z,1016.18
2022-08-03T08:50:38.071Z,1016.09
2022-08-03T08:53:11.613Z,1015.93
2022-08-03T08:55:58.359Z,1016.01
2022-08-03T08:58:32.789Z,1015.87
2022-08-03T09:01:00.703Z,1015.82
2022-08-03T09:03:30.195Z,1015.86
2022-08-03T09:06:07.389Z,1015.79
2022-08-03T09:08:36.694Z,1015.79
2022-08-03T09:11:06.060Z,1015.77
2022-08-03T09:13:39.133Z,1015.85
2022-08-03T09:16:15.047Z,1015.71
2022-08-03T09:18:47.780Z,1015.63
2022-08-03T09:21:37.778Z,1015.65
2022-08-03T09:24:10.500Z,1015.62
2022-08-03T09:26:52.122Z,1015.45
2022-08-03T09:29:33.687Z,1015.46
2022-08-03T09:32:02.866Z,1015.43
2022-08-03T09:34:30.899Z,1015.38
2022-08-03T09:36:58.151Z,1015.31
2022-08-03T09:39:41.420Z,1015.26
2022-08-03T09:42:11.177Z,1015.16
2022-08-03T09:44:45.258Z,1015.15
2022-08-03T09:47:14.952Z,1015.18
2022-08-03T09:49:58.254Z,1015.13
2022-08-03T09:52:38.921Z,1015.06
2022-08-03T09:56:05.138Z,1014.94
2022-08-03T09:58:10.334Z,1014.80
2022-08-03T10:00:53.423Z,1014.79
2022-08-03T10:03:20.358Z,1014.67
2022-08-03T10:05:48.289Z,1014.85
2022-08-03T10:08:18.202Z,1014.85
2022-08-03T10:10:47.132Z,1014.73
2022-08-03T10:13:17.021Z,1014.73
2022-08-03T10:16:22.448Z,1014.76
2022-08-03T10:18:35.379Z,1014.68
2022-08-03T10:21:08.001Z,1014.55
2022-08-03T10:23:38.131Z,1014.49
2022-08-03T10:26:13.143Z,1014.64
2022-08-03T10:28:49.761Z,1014.59
2022-08-03T10:31:28.029Z,1014.57
2022-08-03T10:33:58.100Z,1014.54
2022-08-03T10:36:36.452Z,1014.33
2022-08-03T10:39:04.996Z,1014.34
2022-08-03T10:41:46.729Z,1014.15
2022-08-03T10:44:19.512Z,1014.08
2022-08-03T10:46:48.588Z,1013.98
2022-08-03T10:49:33.756Z,1013.97
2022-08-03T10:52:13.088Z,1013.95
2022-08-03T10:54:52.957Z,1014.27
2022-08-03T10:57:49.731Z,1014.09
2022-08-03T11:00:19.800Z,1014.05
2022-08-03T11:03:05.968Z,1014.13
2022-08-03T11:05:36.054Z,1014.03
2022-08-03T11:08:28.987Z,1013.90
2022-08-03T11:10:58.805Z,1013.87
2022-08-03T11:13:30.364Z,1013.87
2022-08-03T11:16:04.753Z,1013.82
2022-08-03T11:18:35.152Z,1013.75
2022-08-03T11:21:03.419Z,1013.76
2022-08-03T11:24:02.850Z,1013.71
2022-08-03T11:26:31.093Z,1013.77
2022-08-03T11:29:27.739Z,1013.63
2022-08-03T11:31:56.581Z,1013.65
2022-08-03T11:34:25.233Z,1013.57
2022-08-03T11:37:26.339Z,1013.61
2022-08-03T11:39:55.961Z,1013.55
2022-08-03T11:42:42.808Z,1013.40
2022-08-03T11:45:10.591Z,1013.42
2022-08-03T11:47:50.597Z,1013.39
2022-08-03T11:50:21.048Z,1013.31
2022-08-03T11:52:50.012Z,1013.32
2022-08-03T11:55:19.956Z,1013.29
2022-08-03T11:59:01.335Z,1013.36
2022-08-03T12:00:37.261Z,1013.35
2022-08-03T12:03:13.878Z,1013.28
2022-08-03T12:05:51.037Z,1013.26
2022-08-03T12:08:31.217Z,1013.21
2022-08-03T12:11:00.441Z,1013.24
2022-08-03T12:14:45.266Z,1013.34
2022-08-03T12:16:23.131Z,1013.29
2022-08-03T12:18:57.850Z,1013.20
2022-08-03T12:21:26.378Z,1013.07
2022-08-03T12:23:57.232Z,1013.03
2022-08-03T12:26:28.072Z,1013.31
2022-08-03T12:28:56.142Z,1013.22
2022-08-03T12:31:23.341Z,1013.32
2022-08-03T12:34:03.726Z,1013.30
2022-08-03T12:36:33.084Z,1013.38
2022-08-03T12:39:04.418Z,1013.31
2022-08-03T12:41:34.072Z,1013.43
2022-08-03T12:44:02.131Z,1013.36
2022-08-03T12:46:33.829Z,1013.30
2022-08-03T12:49:07.050Z,1013.21
2022-08-03T12:51:37.036Z,1013.38
2022-08-03T12:54:05.880Z,1013.33
2022-08-03T12:56:33.384Z,1013.29
2022-08-03T12:59:01.516Z,1013.18
2022-08-03T13:01:55.000Z,1013.40
2022-08-03T13:04:33.226Z,1013.56
2022-08-03T13:07:02.911Z,1013.29
2022-08-03T13:09:41.921Z,1013.37
2022-08-03T13:12:11.267Z,1013.38
2022-08-03T13:14:40.391Z,1013.58
2022-08-03T13:17:09.990Z,1013.26
2022-08-03T13:19:46.093Z,1013.36
2022-08-03T13:22:14.304Z,1013.24
2022-08-03T13:24:45.421Z,1013.15
2022-08-03T13:28:01.908Z,1013.22
2022-08-03T13:30:05.691Z,1013.19
2022-08-03T13:32:34.619Z,1013.25
2022-08-03T13:35:05.825Z,1013.09
2022-08-03T13:37:33.125Z,1013.04
2022-08-03T13:40:04.804Z,1013.09
2022-08-03T13:42:34.875Z,1013.08
2022-08-03T13:45:05.305Z,1013.08
2022-08-03T13:47:32.457Z,1012.94
2022-08-03T13:50:03.083Z,1012.90
2022-08-03T13:52:35.223Z,1012.91
2022-08-03T13:55:04.325Z,1012.84
2022-08-03T13:58:03.562Z,1012.87
2022-08-03T14:00:27.895Z,1012.78
2022-08-03T14:03:13.905Z,1012.82
2022-08-03T14:05:42.700Z,1012.77
2022-08-03T14:08:11.481Z,1012.58
2022-08-03T14:10:41.957Z,1012.66
2022-08-03T14:13:12.166Z,1012.79
2022-08-03T14:15:39.422Z,1012.65
2022-08-03T14:18:12.862Z,1012.56
2022-08-03T14:20:49.090Z,1012.75
2022-08-03T14:23:20.355Z,1012.83
2022-08-03T14:25:51.870Z,1012.86
2022-08-03T14:28:31.675Z,1012.77
2022-08-03T14:30:59.123Z,1012.81
2022-08-03T14:33:26.927Z,1012.77
2022-08-03T14:35:55.239Z,1012.78
2022-08-03T14:38:25.156Z,1012.86
2022-08-03T14:40:54.192Z,1012.87
2022-08-03T14:43:21.202Z,1012.83
2022-08-03T14:45:52.673Z,1012.85
2022-08-03T14:50:33.073Z,1012.95
2022-08-03T14:51:11.500Z,1012.90
2022-08-03T14:53:46.590Z,1012.86
2022-08-03T14:56:14.130Z,1012.84
2022-08-03T14:58:43.777Z,1013.01
2022-08-03T15:02:03.057Z,1012.84
2022-08-03T15:04:11.255Z,1012.86
2022-08-03T15:06:38.530Z,1012.86
2022-08-03T15:09:23.633Z,1012.82
2022-08-03T15:11:53.282Z,1012.88
2022-08-03T15:14:32.247Z,1012.79
2022-08-03T15:17:01.199Z,1012.85
2022-08-03T15:20:03.743Z,1012.78
2022-08-03T15:22:19.028Z,1012.98
2022-08-03T15:24:58.508Z,1012.94
2022-08-03T15:27:26.093Z,1012.96
2022-08-03T15:30:05.129Z,1012.97
2022-08-03T15:32:36.655Z,1012.93
2022-08-03T15:35:04.300Z,1012.91
2022-08-03T15:37:31.379Z,1012.92
2022-08-03T15:40:02.246Z,1013.00
2022-08-03T15:42:30.490Z,1013.02
2022-08-03T15:44:57.430Z,1013.12
2022-08-03T15:47:27.194Z,1013.03
2022-08-03T15:49:57.091Z,1013.04
2022-08-03T15:52:24.475Z,1013.18
2022-08-03T15:54:51.887Z,1013.24
2022-08-03T15:57:24.045Z,1013.20
2022-08-03T15:59:54.718Z,1013.20
2022-08-03T16:02:25.260Z,1013.17
2022-08-03T16:04:52.923Z,1013.18
2022-08-03T16:07:20.319Z,1013.26
2022-08-03T16:09:47.601Z,1013.29
2022-08-03T16:12:16.771Z,1013.35
2022-08-03T16:14:54.452Z,1013.26
2022-08-03T16:17:22.933Z,1013.29
2022-08-03T16:19:51.073Z,1013.35
2022-08-03T16:22:22.998Z,1013.36
2022-08-03T16:24:51.524Z,1013.34
2022-08-03T16:27:56.782Z,1013.45
2022-08-03T16:30:12.211Z,1013.41
2022-08-03T16:32:41.655Z,1013.44
2022-08-03T16:35:19.423Z,1013.52
2022-08-03T16:37:56.122Z,1013.58
2022-08-03T16:40:25.685Z,1013.66
2022-08-03T16:42:52.531Z,1013.69
2022-08-03T16:45:24.086Z,1013.66
2022-08-03T16:48:01.426Z,1013.62
2022-08-03T16:50:35.409Z,1013.71
2022-08-03T16:53:05.073Z,1013.71
2022-08-03T16:55:48.937Z,1013.88
2022-08-03T16:58:24.331Z,1013.92
2022-08-03T17:01:22.603Z,1013.92
2022-08-03T17:04:01.918Z,1013.94
2022-08-03T17:06:35.945Z,1013.99
2022-08-03T17:09:09.119Z,1013.98
2022-08-03T17:11:37.738Z,1014.03
2022-08-03T17:14:09.607Z,1014.14
2022-08-03T17:16:40.646Z,1014.18
2022-08-03T17:19:23.612Z,1014.22
2022-08-03T17:22:01.549Z,1014.21
2022-08-03T17:24:41.201Z,1014.27
2022-08-03T17:28:41.728Z,1014.31
2022-08-03T17:30:05.225Z,1014.37
2022-08-03T17:32:42.300Z,1014.36
2022-08-03T17:35:09.806Z,1014.45
2022-08-03T17:37:57.845Z,1014.41
2022-08-03T17:40:31.095Z,1014.44
2022-08-03T17:44:13.645Z,1014.43
2022-08-03T17:45:54.725Z,1014.46
2022-08-03T17:48:26.055Z,1014.56
2022-08-03T17:51:06.631Z,1014.71
2022-08-03T17:53:38.997Z,1014.77
2022-08-03T17:56:40.380Z,1014.91
2022-08-03T17:59:15.439Z,1014.97
2022-08-03T18:02:00.651Z,1015.18
2022-08-03T18:04:34.832Z,1015.28
2022-08-03T18:07:11.278Z,1015.22
2022-08-03T18:10:03.559Z,1015.27
2022-08-03T18:12:43.800Z,1015.34
2022-08-03T18:15:22.748Z,1015.34
2022-08-03T18:17:55.520Z,1015.69
2022-08-03T18:20:40.921Z,1015.68
2022-08-03T18:23:11.641Z,1015.93
2022-08-03T18:25:58.027Z,1015.89
2022-08-03T18:28:28.922Z,1015.95
2022-08-03T18:30:57.724Z,1015.97
2022-08-03T18:34:19.661Z,1016.12
2022-08-03T18:36:29.648Z,1016.18
2022-08-03T18:39:02.341Z,1016.17
2022-08-03T18:41:32.242Z,1016.36
2022-08-03T18:44:06.882Z,1016.48
2022-08-03T18:46:47.978Z,1016.37
2022-08-03T18:49:34.827Z,1016.41
2022-08-03T18:52:12.422Z,1016.44
2022-08-03T18:55:02.298Z,1016.54
2022-08-03T18:57:39.364Z,1016.67
2022-08-03T19:00:13.991Z,1016.75
2022-08-03T19:02:48.672Z,1016.80
2022-08-03T19:05:18.988Z,1016.81
2022-08-03T19:07:58.190Z,1016.90
2022-08-03T19:10:31.449Z,1016.94
2022-08-03T19:13:11.368Z,1017.04
2022-08-03T19:15:51.232Z,1017.02
2022-08-03T19:18:21.318Z,1017.13
2022-08-03T19:20:53.218Z,1017.15
2022-08-03T19:23:33.879Z,1017.09
2022-08-03T19:26:03.262Z,1017.15
2022-08-03T19:28:34.111Z,1017.17
2022-08-03T19:31:02.590Z,1017.09
2022-08-03T19:33:55.930Z,1017.04
2022-08-03T19:36:27.339Z,1017.01
2022-08-03T19:39:01.498Z,1017.11
2022-08-03T19:41:42.239Z,1017.23
2022-08-03T19:44:12.219Z,1017.29
2022-08-03T19:46:52.366Z,1017.40
2022-08-03T19:50:05.127Z,1017.40
2022-08-03T19:52:33.206Z,1017.56
2022-08-03T19:55:07.500Z,1017.48
2022-08-03T19:57:38.682Z,1017.71
2022-08-03T20:00:10.151Z,1017.69
2022-08-03T20:02:38.054Z,1017.86
2022-08-03T20:05:14.946Z,1017.87
2022-08-03T20:07:48.182Z,1017.93
2022-08-03T20:10:19.644Z,1017.90
2022-08-03T20:12:49.234Z,1017.96
2022-08-03T20:15:31.113Z,1018.05
2022-08-03T20:17:59.807Z,1018.10
2022-08-03T20:20:30.936Z,1018.12
2022-08-03T20:23:01.045Z,1018.13
2022-08-03T20:25:38.151Z,1018.25
2022-08-03T20:28:14.906Z,1018.24
2022-08-03T20:30:44.548Z,1018.19
2022-08-03T20:33:18.656Z,1018.21
2022-08-03T20:35:49.625Z,1018.15
2022-08-03T20:38:18.403Z,1018.13
2022-08-03T20:40:50.355Z,1018.30
2022-08-03T20:46:29.017Z,1018.18
2022-08-03T20:48:54.649Z,1018.15
2022-08-03T20:51:48.983Z,1018.16
2022-08-03T20:54:23.115Z,1018.22
2022-08-03T20:57:10.153Z,1018.33
2022-08-03T20:59:50.520Z,1018.33
2022-08-03T21:02:30.366Z,1018.51
2022-08-03T21:05:03.749Z,1018.53
2022-08-03T21:08:03.779Z,1018.36
2022-08-03T21:10:38.474Z,1018.29
2022-08-03T21:13:12.862Z,1018.22
2022-08-03T21:16:12.563Z,1018.18
2022-08-03T21:18:46.290Z,1018.29
2022-08-03T21:21:16.538Z,1018.38
2022-08-03T21:23:48.591Z,1018.43
2022-08-03T21:26:18.513Z,1018.41
2022-08-03T21:28:49.107Z,1018.51
2022-08-03T21:31:24.501Z,1018.55
2022-08-03T21:33:56.837Z,1018.48
2022-08-03T21:36:25.862Z,1018.57
2022-08-03T21:39:00.573Z,1018.51
2022-08-03T21:41:30.711Z,1018.65
2022-08-03T21:43:59.827Z,1018.65
2022-08-03T21:46:29.534Z,1018.77
2022-08-03T21:50:04.247Z,1018.74
2022-08-03T21:51:52.238Z,1018.80
2022-08-03T21:54:20.958Z,1018.94
2022-08-03T21:56:51.180Z,1018.89
2022-08-03T21:59:23.379Z,1018.91
2022-08-03T22:01:55.521Z,1018.88
2022-08-03T22:04:53.241Z,1018.90
2022-08-03T22:07:18.066Z,1019.09
2022-08-03T22:09:51.451Z,1019.16
2022-08-03T22:12:21.012Z,1019.25
2022-08-03T22:15:00.481Z,1019.20
2022-08-03T22:17:55.384Z,1019.25
2022-08-03T22:20:22.311Z,1019.35
2022-08-03T22:22:56.111Z,1019.32
2022-08-03T22:25:28.015Z,1019.26
2022-08-03T22:27:55.672Z,1019.32
2022-08-03T22:30:25.457Z,1019.34
2022-08-03T22:32:56.801Z,1019.30
2022-08-03T22:35:26.994Z,1019.30
2022-08-03T22:37:54.928Z,1019.39
2022-08-03T22:40:23.235Z,1019.36
2022-08-03T22:42:54.576Z,1019.28
2022-08-03T22:46:07.275Z,1019.36
2022-08-03T22:48:14.552Z,1019.32
2022-08-03T22:50:43.780Z,1019.39
2022-08-03T22:53:17.198Z,1019.37
2022-08-03T22:55:44.706Z,1019.33
2022-08-03T22:58:16.197Z,1019.38
2022-08-03T23:00:47.419Z,1019.43
2022-08-03T23:04:00.446Z,1019.40
2022-08-03T23:06:21.188Z,1019.50
2022-08-03T23:08:50.322Z,1019.55
2022-08-03T23:11:19.294Z,1019.60
2022-08-03T23:13:53.142Z,1019.63
2022-08-03T23:16:28.857Z,1019.51
2022-08-03T23:19:16.472Z,1019.57
2022-08-03T23:21:53.805Z,1019.52
2022-08-03T23:24:30.895Z,1019.73
2022-08-03T23:26:58.521Z,1019.65
2022-08-03T23:29:30.901Z,1019.61
2022-08-03T23:32:06.143Z,1019.61
2022-08-03T23:34:39.814Z,1019.72
2022-08-03T23:37:06.770Z,1019.72
2022-08-03T23:39:35.517Z,1019.75
2022-08-03T23:42:06.298Z,1019.84
2022-08-03T23:44:38.872Z,1019.87
2022-08-03T23:47:05.746Z,1019.82
2022-08-03T23:49:33.292Z,1019.74
2022-08-03T23:52:08.420Z,1019.75
2022-08-03T23:54:47.001Z,1019.73
2022-08-03T23:57:25.465Z,1019.72
